createdAt,value
2023-03-12T00:55:15.347Z,1.30
2023-03-12T01:07:01.952Z,1.50
2023-03-12T01:14:48.982Z,1.63
2023-03-12T01:17:21.789Z,1.50
2023-03-12T01:19:49.942Z,1.70
2023-03-12T01:22:29.403Z,1.70
2023-03-12T01:25:05.859Z,1.53
2023-03-12T01:27:33.948Z,1.30
2023-03-12T01:33:02.187Z,1.27
2023-03-12T01:35:32.557Z,1.90
2023-03-12T01:38:05.783Z,1.43
2023-03-12T01:40:43.158Z,1.60
2023-03-12T01:43:32.323Z,1.47
2023-03-12T01:46:24.948Z,1.50
2023-03-12T01:49:10.198Z,1.83
2023-03-12T01:51:49.018Z,1.40
2023-03-12T01:54:39.171Z,1.70
2023-03-12T01:57:13.342Z,1.60
2023-03-12T01:59:54.468Z,1.60
2023-03-12T02:02:29.849Z,1.87
2023-03-12T02:05:16.822Z,1.30
2023-03-12T02:07:57.176Z,1.60
2023-03-12T02:10:52.164Z,1.50
2023-03-12T02:13:28.683Z,1.47
2023-03-12T02:16:06.174Z,1.80
2023-03-12T02:18:46.388Z,1.90
2023-03-12T02:21:21.015Z,1.30
2023-03-12T02:24:02.129Z,1.70
2023-03-12T02:33:56.019Z,1.60
2023-03-12T02:37:00.211Z,1.73
2023-03-12T02:43:21.048Z,1.63
2023-03-12T02:49:29.373Z,1.57
2023-03-12T02:56:14.879Z,1.60
2023-03-12T02:59:04.320Z,1.83
2023-03-12T03:01:54.884Z,1.83
2023-03-12T03:07:56.547Z,2.17
2023-03-12T03:16:55.154Z,1.87
2023-03-12T03:20:13.278Z,1.87
2023-03-12T03:23:11.796Z,1.70
2023-03-12T03:26:04.656Z,1.60
2023-03-12T03:50:21.508Z,2.03
2023-03-12T04:01:00.791Z,1.83
2023-03-12T06:51:17.089Z,3.33
2023-03-12T06:54:47.078Z,3.07
2023-03-12T07:01:19.067Z,4.00
2023-03-12T07:04:36.395Z,4.43
2023-03-12T07:07:40.354Z,6.40
2023-03-12T07:50:52.254Z,3.00
2023-03-12T07:53:20.978Z,3.37
2023-03-12T07:55:52.418Z,3.17
2023-03-12T07:58:20.731Z,3.83
2023-03-12T08:00:49.167Z,3.37
2023-03-12T08:03:18.105Z,3.23
2023-03-12T08:05:46.680Z,3.23
2023-03-12T08:08:18.049Z,3.47
2023-03-12T08:10:46.870Z,3.30
2023-03-12T08:13:15.097Z,3.37
2023-03-12T08:15:44.959Z,3.43
2023-03-12T08:18:13.416Z,3.87
2023-03-12T08:20:41.654Z,4.00
2023-03-12T08:23:18.870Z,4.13
2023-03-12T08:25:49.452Z,5.67
2023-03-12T08:28:18.814Z,4.27
2023-03-12T08:30:48.331Z,4.40
2023-03-12T08:33:16.662Z,3.83
2023-03-12T08:35:44.871Z,4.17
2023-03-12T08:38:13.106Z,5.73
2023-03-12T08:40:41.334Z,4.53
2023-03-12T08:43:14.061Z,4.40
2023-03-12T08:45:51.573Z,3.83
2023-03-12T08:48:30.392Z,3.23
2023-03-12T08:51:04.732Z,3.20
2023-03-12T08:53:40.893Z,3.03
2023-03-12T08:56:15.789Z,3.33
2023-03-12T08:58:52.129Z,3.17
2023-03-12T09:01:23.023Z,3.63
2023-03-12T09:04:04.720Z,3.20
2023-03-12T09:06:41.854Z,2.93
2023-03-12T09:12:24.217Z,2.90
2023-03-12T09:15:05.440Z,3.20
2023-03-12T09:17:43.062Z,3.23
2023-03-12T10:06:14.630Z,2.40
2023-03-12T10:09:04.743Z,2.67
2023-03-12T10:11:45.132Z,2.50
2023-03-12T10:14:28.059Z,2.10
2023-03-12T10:17:10.396Z,2.50
2023-03-12T10:19:55.420Z,2.60
2023-03-12T10:22:33.854Z,2.63
2023-03-12T10:25:09.390Z,2.30
2023-03-12T10:27:38.185Z,2.27
2023-03-12T10:30:17.881Z,2.30
2023-03-12T10:32:50.705Z,2.40
2023-03-12T10:35:21.991Z,2.60
2023-03-12T10:37:53.400Z,2.27
2023-03-12T10:40:23.560Z,2.10
2023-03-12T10:42:53.517Z,2.27
2023-03-12T10:45:30.851Z,2.80
2023-03-12T10:48:07.084Z,2.40
2023-03-12T10:50:38.747Z,2.30
2023-03-12T10:53:28.556Z,2.60
2023-03-12T10:56:03.285Z,2.80
2023-03-12T10:58:36.842Z,2.23
2023-03-12T11:01:20.240Z,2.47
2023-03-12T11:03:48.395Z,2.70
2023-03-12T11:06:23.346Z,2.53
2023-03-12T11:09:16.647Z,2.43
2023-03-12T11:11:47.505Z,2.33
2023-03-12T11:14:19.238Z,2.30
2023-03-12T11:16:47.719Z,2.43
2023-03-12T11:19:27.304Z,2.67
2023-03-12T11:21:58.396Z,2.53
2023-03-12T11:24:32.013Z,2.40
2023-03-12T11:27:08.214Z,2.67
2023-03-12T11:29:42.008Z,2.70
2023-03-12T11:32:18.301Z,2.80
2023-03-12T11:34:58.289Z,2.87
2023-03-12T11:37:35.409Z,2.87
2023-03-12T11:40:18.393Z,3.10
2023-03-12T11:43:02.672Z,2.77
2023-03-12T11:45:38.545Z,3.20
2023-03-12T11:48:23.645Z,3.20
2023-03-12T11:51:15.381Z,2.60
2023-03-12T11:54:12.943Z,2.80
2023-03-12T11:56:51.565Z,3.30
2023-03-12T11:59:37.773Z,3.07
2023-03-12T12:02:23.764Z,2.87
2023-03-12T12:05:22.961Z,3.10
2023-03-12T12:08:12.285Z,2.70
2023-03-12T12:10:49.165Z,2.90
2023-03-12T12:13:25.274Z,2.97
2023-03-12T12:16:03.125Z,2.97
2023-03-12T12:18:52.937Z,3.27
2023-03-12T12:21:51.275Z,3.10
2023-03-12T12:24:33.377Z,3.27
2023-03-12T12:27:10.533Z,2.90
2023-03-12T12:29:55.315Z,2.47
2023-03-12T12:32:33.681Z,3.00
2023-03-12T12:35:16.235Z,3.00
2023-03-12T12:37:52.690Z,2.90
2023-03-12T12:40:24.577Z,2.67
2023-03-12T12:43:02.424Z,2.90
2023-03-12T12:45:32.388Z,2.60
2023-03-12T12:48:05.241Z,2.80
2023-03-12T12:50:39.924Z,2.33
2023-03-12T12:53:18.352Z,2.87
2023-03-12T12:55:56.390Z,2.57
2023-03-12T12:58:33.210Z,3.10
2023-03-12T13:01:03.590Z,3.03
2023-03-12T13:03:33.272Z,2.97
2023-03-12T13:06:03.785Z,2.80
2023-03-12T13:08:56.637Z,2.97
2023-03-12T13:11:28.141Z,2.70
2023-03-12T13:14:21.701Z,3.10
2023-03-12T13:17:06.778Z,2.97
2023-03-12T13:19:46.910Z,2.87
2023-03-12T13:22:29.942Z,2.67
2023-03-12T13:25:08.657Z,2.80
2023-03-12T13:27:39.306Z,2.90
2023-03-12T13:30:44.442Z,2.40
2023-03-12T13:33:16.095Z,2.53
2023-03-12T13:35:49.098Z,3.10
2023-03-12T13:38:35.292Z,2.67
2023-03-12T13:41:05.509Z,2.70
2023-03-12T13:44:00.455Z,3.27
2023-03-12T13:46:35.034Z,3.00
2023-03-12T13:49:12.218Z,3.17
2023-03-12T13:51:53.597Z,3.57
2023-03-12T13:54:24.749Z,3.60
2023-03-12T13:57:01.120Z,3.73
2023-03-12T13:59:31.117Z,4.53
2023-03-12T14:02:05.816Z,4.37
2023-03-12T14:04:41.155Z,4.43
2023-03-12T14:07:39.839Z,5.13
2023-03-12T14:10:19.954Z,5.53
2023-03-12T14:12:58.282Z,6.73
2023-03-12T14:15:33.521Z,5.20
2023-03-12T14:18:05.184Z,5.63
2023-03-12T14:20:39.252Z,6.60
2023-03-12T14:23:19.732Z,6.60
2023-03-12T14:25:59.495Z,6.43
2023-03-12T14:28:28.578Z,6.70
2023-03-12T14:31:02.056Z,6.63
2023-03-12T14:33:39.185Z,7.57
2023-03-12T14:36:19.143Z,7.83
2023-03-12T14:39:11.441Z,7.53
2023-03-12T14:41:49.637Z,8.27
2023-03-12T14:44:54.043Z,9.10
2023-03-12T14:47:22.472Z,10.33
2023-03-12T14:50:05.874Z,10.93
2023-03-12T14:52:52.693Z,10.93
2023-03-12T14:55:52.775Z,10.50
2023-03-12T14:58:51.514Z,10.13
2023-03-12T15:01:43.067Z,11.23
2023-03-12T15:04:22.438Z,10.60
2023-03-12T15:06:53.707Z,10.53
2023-03-12T15:09:35.308Z,10.43
2023-03-12T15:12:17.362Z,11.23
2023-03-12T15:14:50.459Z,11.57
2023-03-12T15:17:20.801Z,13.43
2023-03-12T15:19:50.418Z,13.37
2023-03-12T15:22:23.285Z,13.50
2023-03-12T15:24:53.096Z,13.50
2023-03-12T15:27:24.417Z,13.47
2023-03-12T15:29:53.008Z,13.47
2023-03-12T15:32:25.225Z,13.83
2023-03-12T15:34:54.755Z,14.13
2023-03-12T15:37:32.409Z,13.73
2023-03-12T15:40:06.674Z,13.23
2023-03-12T15:42:41.378Z,12.73
2023-03-12T15:45:19.862Z,12.03
2023-03-12T15:47:48.956Z,12.47
2023-03-12T15:50:23.075Z,11.67
2023-03-12T15:53:02.648Z,10.33
2023-03-12T15:55:34.060Z,11.03
2023-03-12T15:58:02.820Z,11.40
2023-03-12T16:00:33.170Z,11.40
2023-03-12T16:03:04.055Z,12.13
2023-03-12T16:05:33.673Z,10.57
2023-03-12T16:08:03.989Z,11.50
2023-03-12T16:10:37.430Z,11.10
2023-03-12T16:13:05.929Z,10.17
2023-03-12T16:15:37.093Z,10.77
2023-03-12T16:18:05.804Z,11.17
2023-03-12T16:20:33.867Z,11.60
2023-03-12T16:23:02.002Z,11.97
2023-03-12T16:25:30.270Z,12.40
2023-03-12T16:28:03.502Z,12.40
2023-03-12T16:30:33.645Z,12.90
2023-03-12T16:33:04.116Z,12.37
2023-03-12T16:35:33.858Z,14.90
2023-03-12T16:38:02.252Z,12.33
2023-03-12T16:40:34.114Z,13.50
2023-03-12T16:43:06.734Z,13.20
2023-03-12T16:45:37.027Z,12.97
2023-03-12T16:48:07.500Z,13.63
2023-03-12T16:50:35.820Z,13.07
2023-03-12T16:53:04.910Z,14.10
2023-03-12T16:55:45.349Z,12.90
2023-03-12T16:58:16.895Z,12.57
2023-03-12T17:00:45.387Z,14.27
2023-03-12T17:03:22.733Z,13.40
2023-03-12T17:05:50.730Z,12.27
2023-03-12T17:08:19.050Z,11.57
2023-03-12T17:10:47.206Z,13.47
2023-03-12T17:13:21.307Z,12.40
2023-03-12T17:15:49.947Z,12.83
2023-03-12T17:18:18.510Z,12.63
2023-03-12T17:20:47.058Z,11.73
2023-03-12T17:23:15.370Z,11.83
2023-03-12T17:25:45.354Z,12.50
2023-03-12T17:28:15.540Z,12.90
2023-03-12T17:30:45.616Z,11.70
2023-03-12T17:33:15.958Z,12.30
2023-03-12T17:35:44.468Z,11.97
2023-03-12T17:38:13.885Z,12.47
2023-03-12T17:40:43.006Z,12.07
2023-03-12T17:43:11.837Z,11.53
2023-03-12T17:45:39.920Z,12.50
2023-03-12T17:48:09.593Z,11.63
2023-03-12T17:50:38.145Z,10.17
2023-03-12T17:53:06.236Z,11.77
2023-03-12T17:55:34.358Z,10.23
2023-03-12T17:58:03.222Z,11.90
2023-03-12T18:00:31.453Z,12.40
2023-03-12T18:02:59.531Z,10.23
2023-03-12T18:05:31.515Z,10.80
2023-03-12T18:07:59.994Z,11.53
2023-03-12T18:10:28.101Z,9.90
2023-03-12T18:12:56.129Z,11.03
2023-03-12T18:15:24.174Z,9.77
2023-03-12T18:17:56.483Z,10.87
2023-03-12T18:20:36.209Z,9.90
2023-03-12T18:23:08.095Z,10.13
2023-03-12T18:25:37.773Z,9.97
2023-03-12T18:28:06.490Z,8.80
2023-03-12T18:30:34.597Z,8.90
2023-03-12T18:33:02.636Z,10.47
2023-03-12T18:35:30.676Z,9.43
2023-03-12T18:37:58.978Z,8.47
2023-03-12T18:40:29.051Z,9.30
2023-03-12T18:42:58.872Z,9.10
2023-03-12T18:45:27.816Z,9.83
2023-03-12T18:47:55.910Z,10.07
2023-03-12T18:50:24.182Z,10.27
2023-03-12T18:52:52.194Z,11.33
2023-03-12T18:55:20.334Z,9.30
2023-03-12T18:57:49.784Z,9.40
2023-03-12T19:00:19.201Z,8.10
2023-03-12T19:02:48.721Z,8.83
2023-03-12T19:05:17.590Z,9.07
2023-03-12T19:07:46.061Z,7.73
2023-03-12T19:10:14.884Z,7.80
2023-03-12T19:12:52.140Z,8.17
2023-03-12T19:15:24.970Z,7.57
2023-03-12T19:17:54.414Z,8.23
2023-03-12T19:20:23.058Z,7.90
2023-03-12T19:22:51.344Z,7.90
2023-03-12T19:25:20.383Z,7.07
2023-03-12T19:27:48.578Z,7.77
2023-03-12T19:30:17.614Z,7.70
2023-03-12T19:32:47.571Z,8.33
2023-03-12T19:35:16.252Z,7.20
2023-03-12T19:37:44.443Z,6.70
2023-03-12T19:40:14.129Z,7.37
2023-03-12T19:42:42.245Z,8.93
2023-03-12T19:45:11.423Z,7.57
2023-03-12T19:47:39.839Z,8.67
2023-03-12T19:50:11.932Z,14.63
2023-03-12T19:52:40.086Z,19.33
2023-03-12T19:55:09.510Z,8.03
2023-03-12T19:57:37.882Z,11.07
2023-03-12T20:00:09.887Z,16.47
2023-03-12T20:02:38.938Z,7.93
2023-03-12T20:05:10.112Z,6.83
2023-03-12T20:07:38.458Z,7.53
2023-03-12T20:10:10.146Z,6.77
2023-03-12T20:12:39.023Z,8.03
2023-03-12T20:15:08.167Z,7.30
2023-03-12T20:17:38.245Z,6.70
2023-03-12T20:20:08.881Z,10.53
2023-03-12T20:22:38.663Z,8.83
2023-03-12T20:25:07.886Z,11.27
2023-03-12T20:27:36.102Z,8.07
2023-03-12T20:30:04.811Z,7.50
2023-03-12T20:32:33.157Z,10.10
2023-03-12T20:35:01.223Z,9.13
2023-03-12T20:37:29.518Z,8.30
2023-03-12T20:39:59.037Z,9.30
2023-03-12T20:42:27.031Z,10.90
2023-03-12T20:44:55.295Z,8.53
2023-03-12T20:47:24.272Z,11.83
2023-03-12T20:49:52.537Z,9.73
2023-03-12T20:52:20.747Z,8.37
2023-03-12T20:54:48.824Z,8.40
2023-03-12T20:57:18.431Z,9.23
2023-03-12T20:59:46.671Z,8.03
2023-03-12T21:02:15.281Z,8.30
2023-03-12T21:04:43.788Z,8.63
2023-03-12T21:07:12.038Z,7.90
2023-03-12T21:09:40.084Z,7.43
2023-03-12T21:12:08.314Z,8.00
2023-03-12T21:14:39.899Z,7.07
2023-03-12T21:17:13.092Z,7.33
2023-03-12T21:19:41.952Z,7.60
2023-03-12T21:22:10.552Z,7.23
2023-03-12T21:24:38.602Z,6.57
2023-03-12T21:27:06.688Z,7.93
2023-03-12T21:29:34.885Z,6.50
2023-03-12T21:32:04.716Z,6.40
2023-03-12T21:34:32.987Z,6.67
2023-03-12T21:37:01.217Z,6.60
2023-03-12T21:39:29.642Z,6.30
2023-03-12T21:41:58.044Z,7.10
2023-03-12T21:44:26.308Z,6.20
2023-03-12T21:46:54.413Z,6.13
2023-03-12T21:49:23.998Z,6.00
2023-03-12T21:51:52.132Z,6.20
2023-03-12T21:54:20.642Z,6.37
2023-03-12T21:56:49.066Z,6.13
2023-03-12T21:59:17.346Z,6.67
2023-03-12T22:01:45.423Z,6.77
2023-03-12T22:04:13.572Z,5.77
2023-03-12T22:06:43.318Z,5.53
2023-03-12T22:09:11.382Z,6.50
2023-03-12T22:11:39.596Z,6.17
2023-03-12T22:14:07.695Z,5.93
2023-03-12T22:16:36.004Z,6.20
2023-03-12T22:19:07.501Z,5.67
2023-03-12T22:21:35.869Z,6.00
2023-03-12T22:24:05.780Z,6.27
2023-03-12T22:26:33.900Z,6.53
2023-03-12T22:29:02.204Z,7.20
2023-03-12T22:31:32.088Z,6.23
2023-03-12T22:34:00.296Z,6.57
2023-03-12T22:36:28.530Z,6.90
2023-03-12T22:38:56.911Z,6.57
2023-03-12T22:41:28.963Z,6.70
2023-03-12T22:44:02.067Z,6.17
2023-03-12T22:46:30.971Z,7.67
2023-03-12T22:49:01.287Z,6.87
2023-03-12T22:51:30.594Z,7.07
2023-03-12T22:53:58.892Z,7.33
2023-03-12T22:56:28.686Z,6.60
2023-03-12T22:58:57.148Z,7.73
2023-03-12T23:01:25.770Z,7.03
2023-03-12T23:03:53.836Z,6.77
2023-03-12T23:06:23.332Z,7.30
2023-03-12T23:08:52.393Z,6.80
2023-03-12T23:11:20.872Z,7.37
2023-03-12T23:13:50.514Z,7.13
2023-03-12T23:16:20.821Z,7.00
2023-03-12T23:18:49.650Z,6.83
2023-03-12T23:21:20.175Z,7.10
2023-03-12T23:23:48.883Z,6.47
2023-03-12T23:26:19.748Z,7.40
2023-03-12T23:28:48.454Z,7.10
2023-03-12T23:31:18.121Z,7.60
2023-03-12T23:33:46.416Z,7.77
2023-03-12T23:36:16.247Z,7.80
2023-03-12T23:38:44.799Z,9.60
2023-03-12T23:41:14.490Z,8.50
2023-03-12T23:43:42.764Z,7.83
2023-03-12T23:46:11.688Z,8.07
2023-03-12T23:48:42.038Z,8.00
2023-03-12T23:51:11.653Z,7.90
2023-03-12T23:53:41.613Z,7.43
2023-03-12T23:56:11.829Z,8.33
2023-03-12T23:58:40.077Z,8.13
